sensor_id;sensor_type;location;lat;lon;timestamp;P1;durP1;ratioP1;P2;durP2;ratioP2
50976;SDS011;36992;48.200;12.418;2022-10-13T00:01:05;5.20;;;3.05;;
50976;SDS011;36992;48.200;12.418;2022-10-13T00:03:33;6.43;;;2.97;;
50976;SDS011;36992;48.200;12.418;2022-10-13T00:05:59;5.63;;;3.28;;
50976;SDS011;36992;48.200;12.418;2022-10-13T00:08:31;6.45;;;3.15;;
50976;SDS011;36992;48.200;12.418;2022-10-13T00:10:59;6.47;;;3.55;;
50976;SDS011;36992;48.200;12.418;2022-10-13T00:13:26;6.05;;;3.10;;
50976;SDS011;36992;48.200;12.418;2022-10-13T00:15:52;3.80;;;2.38;;
50976;SDS011;36992;48.200;12.418;2022-10-13T00:18:19;4.28;;;2.72;;
50976;SDS011;36992;48.200;12.418;2022-10-13T00:20:46;4.55;;;2.55;;
50976;SDS011;36992;48.200;12.418;2022-10-13T00:23:14;4.72;;;2.70;;
50976;SDS011;36992;48.200;12.418;2022-10-13T00:25:41;5.68;;;2.78;;
50976;SDS011;36992;48.200;12.418;2022-10-13T00:28:11;4.35;;;2.55;;
50976;SDS011;36992;48.200;12.418;2022-10-13T00:30:38;6.22;;;3.47;;
50976;SDS011;36992;48.200;12.418;2022-10-13T00:33:05;7.20;;;3.17;;
50976;SDS011;36992;48.200;12.418;2022-10-13T00:35:32;4.55;;;2.72;;
50976;SDS011;36992;48.200;12.418;2022-10-13T00:37:59;3.80;;;2.30;;
50976;SDS011;36992;48.200;12.418;2022-10-13T00:40:25;4.82;;;2.80;;
50976;SDS011;36992;48.200;12.418;2022-10-13T00:42:52;5.03;;;2.10;;
50976;SDS011;36992;48.200;12.418;2022-10-13T00:45:20;5.32;;;2.95;;
50976;SDS011;36992;48.200;12.418;2022-10-13T00:47:49;5.35;;;2.60;;
50976;SDS011;36992;48.200;12.418;2022-10-13T00:50:20;5.57;;;2.60;;
50976;SDS011;36992;48.200;12.418;2022-10-13T00:52:50;6.30;;;2.67;;
50976;SDS011;36992;48.200;12.418;2022-10-13T00:55:19;6.03;;;2.92;;
50976;SDS011;36992;48.200;12.418;2022-10-13T00:57:49;8.27;;;3.72;;
50976;SDS011;36992;48.200;12.418;2022-10-13T01:00:20;4.65;;;2.28;;
50976;SDS011;36992;48.200;12.418;2022-10-13T01:02:47;4.65;;;2.83;;
50976;SDS011;36992;48.200;12.418;2022-10-13T01:07:40;4.47;;;2.53;;
50976;SDS011;36992;48.200;12.418;2022-10-13T01:10:08;4.78;;;2.30;;
50976;SDS011;36992;48.200;12.418;2022-10-13T01:12:38;6.35;;;3.33;;
50976;SDS011;36992;48.200;12.418;2022-10-13T01:15:14;3.53;;;2.47;;
50976;SDS011;36992;48.200;12.418;2022-10-13T01:17:50;4.22;;;2.40;;
50976;SDS011;36992;48.200;12.418;2022-10-13T01:20:41;4.25;;;2.28;;
50976;SDS011;36992;48.200;12.418;2022-10-13T01:23:33;5.63;;;2.33;;
50976;SDS011;36992;48.200;12.418;2022-10-13T01:26:31;4.93;;;2.17;;
50976;SDS011;36992;48.200;12.418;2022-10-13T01:29:10;5.65;;;2.45;;
50976;SDS011;36992;48.200;12.418;2022-10-13T01:31:50;6.07;;;3.50;;
50976;SDS011;36992;48.200;12.418;2022-10-13T01:34:25;7.18;;;2.75;;
50976;SDS011;36992;48.200;12.418;2022-10-13T01:36:58;5.38;;;3.15;;
50976;SDS011;36992;48.200;12.418;2022-10-13T01:39:31;5.97;;;2.40;;
50976;SDS011;36992;48.200;12.418;2022-10-13T01:42:03;4.70;;;2.72;;
50976;SDS011;36992;48.200;12.418;2022-10-13T01:44:38;5.00;;;2.85;;
50976;SDS011;36992;48.200;12.418;2022-10-13T01:47:11;6.13;;;2.53;;
50976;SDS011;36992;48.200;12.418;2022-10-13T01:49:41;5.47;;;2.50;;
50976;SDS011;36992;48.200;12.418;2022-10-13T01:52:11;7.20;;;3.80;;
50976;SDS011;36992;48.200;12.418;2022-10-13T01:54:41;3.42;;;2.38;;
50976;SDS011;36992;48.200;12.418;2022-10-13T01:59:55;3.83;;;1.88;;
50976;SDS011;36992;48.200;12.418;2022-10-13T02:02:25;6.22;;;3.10;;
50976;SDS011;36992;48.200;12.418;2022-10-13T02:05:00;5.63;;;2.42;;
50976;SDS011;36992;48.200;12.418;2022-10-13T02:07:35;9.00;;;2.95;;
50976;SDS011;36992;48.200;12.418;2022-10-13T02:10:06;4.95;;;3.25;;
50976;SDS011;36992;48.200;12.418;2022-10-13T02:12:41;5.50;;;3.08;;
50976;SDS011;36992;48.200;12.418;2022-10-13T02:15:15;6.47;;;2.55;;
50976;SDS011;36992;48.200;12.418;2022-10-13T02:17:45;3.70;;;2.17;;
50976;SDS011;36992;48.200;12.418;2022-10-13T02:20:12;4.53;;;2.45;;
50976;SDS011;36992;48.200;12.418;2022-10-13T02:22:43;3.83;;;2.67;;
50976;SDS011;36992;48.200;12.418;2022-10-13T02:25:12;5.97;;;2.80;;
50976;SDS011;36992;48.200;12.418;2022-10-13T02:27:39;4.70;;;2.55;;
50976;SDS011;36992;48.200;12.418;2022-10-13T02:30:07;3.55;;;2.45;;
50976;SDS011;36992;48.200;12.418;2022-10-13T02:32:34;3.40;;;1.90;;
50976;SDS011;36992;48.200;12.418;2022-10-13T02:35:02;4.05;;;2.00;;
50976;SDS011;36992;48.200;12.418;2022-10-13T02:37:30;4.38;;;2.20;;
50976;SDS011;36992;48.200;12.418;2022-10-13T02:39:56;4.47;;;2.67;;
50976;SDS011;36992;48.200;12.418;2022-10-13T02:42:23;4.68;;;2.33;;
50976;SDS011;36992;48.200;12.418;2022-10-13T02:44:49;5.10;;;2.65;;
50976;SDS011;36992;48.200;12.418;2022-10-13T02:47:16;4.97;;;2.90;;
50976;SDS011;36992;48.200;12.418;2022-10-13T02:49:42;9.07;;;2.42;;
50976;SDS011;36992;48.200;12.418;2022-10-13T02:52:10;4.43;;;2.63;;
50976;SDS011;36992;48.200;12.418;2022-10-13T02:54:36;6.75;;;2.45;;
50976;SDS011;36992;48.200;12.418;2022-10-13T02:57:03;4.78;;;2.42;;
50976;SDS011;36992;48.200;12.418;2022-10-13T02:59:29;5.22;;;2.63;;
50976;SDS011;36992;48.200;12.418;2022-10-13T03:01:56;5.28;;;2.40;;
50976;SDS011;36992;48.200;12.418;2022-10-13T03:04:22;4.55;;;2.10;;
50976;SDS011;36992;48.200;12.418;2022-10-13T03:06:49;3.63;;;2.20;;
50976;SDS011;36992;48.200;12.418;2022-10-13T03:09:17;3.65;;;2.38;;
50976;SDS011;36992;48.200;12.418;2022-10-13T03:11:43;3.65;;;2.28;;
50976;SDS011;36992;48.200;12.418;2022-10-13T03:14:10;5.35;;;2.38;;
50976;SDS011;36992;48.200;12.418;2022-10-13T03:16:36;5.63;;;2.05;;
50976;SDS011;36992;48.200;12.418;2022-10-13T03:19:03;4.22;;;2.40;;
50976;SDS011;36992;48.200;12.418;2022-10-13T03:21:29;5.38;;;2.63;;
50976;SDS011;36992;48.200;12.418;2022-10-13T03:23:56;5.70;;;2.45;;
50976;SDS011;36992;48.200;12.418;2022-10-13T03:26:24;5.70;;;2.67;;
50976;SDS011;36992;48.200;12.418;2022-10-13T03:28:50;5.68;;;2.45;;
50976;SDS011;36992;48.200;12.418;2022-10-13T03:31:17;6.85;;;2.70;;
50976;SDS011;36992;48.200;12.418;2022-10-13T03:33:44;3.58;;;1.77;;
50976;SDS011;36992;48.200;12.418;2022-10-13T03:36:10;7.25;;;2.97;;
50976;SDS011;36992;48.200;12.418;2022-10-13T03:38:38;6.90;;;2.72;;
50976;SDS011;36992;48.200;12.418;2022-10-13T03:41:05;4.55;;;1.85;;
50976;SDS011;36992;48.200;12.418;2022-10-13T03:43:33;4.88;;;2.60;;
50976;SDS011;36992;48.200;12.418;2022-10-13T03:46:01;5.75;;;2.28;;
50976;SDS011;36992;48.200;12.418;2022-10-13T03:48:29;6.88;;;2.00;;
50976;SDS011;36992;48.200;12.418;2022-10-13T03:50:56;6.07;;;2.58;;
50976;SDS011;36992;48.200;12.418;2022-10-13T03:53:23;9.15;;;2.97;;
50976;SDS011;36992;48.200;12.418;2022-10-13T03:55:50;5.88;;;1.70;;
50976;SDS011;36992;48.200;12.418;2022-10-13T03:58:18;4.40;;;2.35;;
50976;SDS011;36992;48.200;12.418;2022-10-13T04:00:49;3.28;;;1.80;;
50976;SDS011;36992;48.200;12.418;2022-10-13T04:03:16;6.43;;;2.45;;
50976;SDS011;36992;48.200;12.418;2022-10-13T04:05:42;5.05;;;2.20;;
50976;SDS011;36992;48.200;12.418;2022-10-13T04:08:09;3.85;;;2.17;;
50976;SDS011;36992;48.200;12.418;2022-10-13T04:10:36;5.70;;;2.38;;
50976;SDS011;36992;48.200;12.418;2022-10-13T04:13:03;6.00;;;2.92;;
50976;SDS011;36992;48.200;12.418;2022-10-13T04:15:30;6.00;;;2.38;;
50976;SDS011;36992;48.200;12.418;2022-10-13T04:18:01;4.38;;;2.28;;
50976;SDS011;36992;48.200;12.418;2022-10-13T04:20:29;6.38;;;3.15;;
50976;SDS011;36992;48.200;12.418;2022-10-13T04:22:55;7.22;;;2.95;;
50976;SDS011;36992;48.200;12.418;2022-10-13T04:25:22;5.72;;;2.92;;
50976;SDS011;36992;48.200;12.418;2022-10-13T04:27:48;5.05;;;2.72;;
50976;SDS011;36992;48.200;12.418;2022-10-13T04:30:15;5.88;;;3.30;;
50976;SDS011;36992;48.200;12.418;2022-10-13T04:32:41;8.38;;;3.42;;
50976;SDS011;36992;48.200;12.418;2022-10-13T04:35:09;5.80;;;2.90;;
50976;SDS011;36992;48.200;12.418;2022-10-13T04:37:36;5.35;;;3.22;;
50976;SDS011;36992;48.200;12.418;2022-10-13T04:40:03;8.68;;;3.20;;
50976;SDS011;36992;48.200;12.418;2022-10-13T04:42:30;6.90;;;3.13;;
50976;SDS011;36992;48.200;12.418;2022-10-13T04:44:56;8.57;;;4.78;;
50976;SDS011;36992;48.200;12.418;2022-10-13T04:47:23;6.50;;;3.47;;
50976;SDS011;36992;48.200;12.418;2022-10-13T04:49:49;7.03;;;3.80;;
50976;SDS011;36992;48.200;12.418;2022-10-13T04:52:17;6.05;;;3.58;;
50976;SDS011;36992;48.200;12.418;2022-10-13T04:54:43;5.57;;;3.20;;
50976;SDS011;36992;48.200;12.418;2022-10-13T04:57:10;6.72;;;3.15;;
50976;SDS011;36992;48.200;12.418;2022-10-13T04:59:36;5.10;;;2.67;;
50976;SDS011;36992;48.200;12.418;2022-10-13T05:02:03;4.78;;;2.30;;
50976;SDS011;36992;48.200;12.418;2022-10-13T05:04:29;3.97;;;2.03;;
50976;SDS011;36992;48.200;12.418;2022-10-13T05:06:56;4.28;;;2.50;;
50976;SDS011;36992;48.200;12.418;2022-10-13T05:09:24;6.82;;;2.78;;
50976;SDS011;36992;48.200;12.418;2022-10-13T05:11:50;4.88;;;2.28;;
50976;SDS011;36992;48.200;12.418;2022-10-13T05:14:18;9.02;;;2.88;;
50976;SDS011;36992;48.200;12.418;2022-10-13T05:16:45;4.97;;;2.10;;
50976;SDS011;36992;48.200;12.418;2022-10-13T05:19:11;5.82;;;2.80;;
50976;SDS011;36992;48.200;12.418;2022-10-13T05:21:38;8.77;;;3.42;;
50976;SDS011;36992;48.200;12.418;2022-10-13T05:24:05;4.85;;;2.78;;
50976;SDS011;36992;48.200;12.418;2022-10-13T05:26:38;3.33;;;2.05;;
50976;SDS011;36992;48.200;12.418;2022-10-13T05:29:05;7.30;;;3.95;;
50976;SDS011;36992;48.200;12.418;2022-10-13T05:31:32;5.25;;;3.35;;
50976;SDS011;36992;48.200;12.418;2022-10-13T05:34:00;9.70;;;5.35;;
50976;SDS011;36992;48.200;12.418;2022-10-13T05:36:27;8.43;;;4.68;;
50976;SDS011;36992;48.200;12.418;2022-10-13T05:38:56;9.27;;;4.63;;
50976;SDS011;36992;48.200;12.418;2022-10-13T05:41:24;6.40;;;3.60;;
50976;SDS011;36992;48.200;12.418;2022-10-13T05:43:54;6.07;;;3.88;;
50976;SDS011;36992;48.200;12.418;2022-10-13T05:46:23;8.88;;;4.22;;
50976;SDS011;36992;48.200;12.418;2022-10-13T05:48:50;6.65;;;3.60;;
50976;SDS011;36992;48.200;12.418;2022-10-13T05:51:18;8.43;;;4.70;;
50976;SDS011;36992;48.200;12.418;2022-10-13T05:53:48;11.80;;;5.32;;
50976;SDS011;36992;48.200;12.418;2022-10-13T05:56:18;8.02;;;5.28;;
50976;SDS011;36992;48.200;12.418;2022-10-13T05:58:46;10.38;;;6.35;;
50976;SDS011;36992;48.200;12.418;2022-10-13T06:01:18;14.38;;;6.80;;
50976;SDS011;36992;48.200;12.418;2022-10-13T06:03:48;10.52;;;5.20;;
50976;SDS011;36992;48.200;12.418;2022-10-13T06:06:17;7.95;;;4.75;;
50976;SDS011;36992;48.200;12.418;2022-10-13T06:08:44;11.40;;;6.60;;
50976;SDS011;36992;48.200;12.418;2022-10-13T06:11:10;8.23;;;4.88;;
50976;SDS011;36992;48.200;12.418;2022-10-13T06:13:37;8.02;;;4.50;;
50976;SDS011;36992;48.200;12.418;2022-10-13T06:16:03;8.35;;;5.00;;
50976;SDS011;36992;48.200;12.418;2022-10-13T06:18:31;11.35;;;5.38;;
50976;SDS011;36992;48.200;12.418;2022-10-13T06:20:58;8.35;;;4.65;;
50976;SDS011;36992;48.200;12.418;2022-10-13T06:23:25;12.40;;;6.18;;
50976;SDS011;36992;48.200;12.418;2022-10-13T06:25:52;9.07;;;5.13;;
50976;SDS011;36992;48.200;12.418;2022-10-13T06:28:19;7.18;;;3.88;;
50976;SDS011;36992;48.200;12.418;2022-10-13T06:30:46;10.52;;;4.82;;
50976;SDS011;36992;48.200;12.418;2022-10-13T06:33:18;7.97;;;5.18;;
50976;SDS011;36992;48.200;12.418;2022-10-13T06:35:46;9.95;;;5.68;;
50976;SDS011;36992;48.200;12.418;2022-10-13T06:38:12;13.68;;;7.55;;
50976;SDS011;36992;48.200;12.418;2022-10-13T06:40:39;12.27;;;6.43;;
50976;SDS011;36992;48.200;12.418;2022-10-13T06:43:06;9.93;;;5.03;;
50976;SDS011;36992;48.200;12.418;2022-10-13T06:45:32;7.80;;;4.50;;
50976;SDS011;36992;48.200;12.418;2022-10-13T06:47:59;5.57;;;3.40;;
50976;SDS011;36992;48.200;12.418;2022-10-13T06:50:25;8.98;;;5.28;;
50976;SDS011;36992;48.200;12.418;2022-10-13T06:52:55;7.95;;;4.72;;
50976;SDS011;36992;48.200;12.418;2022-10-13T06:55:21;13.23;;;5.40;;
50976;SDS011;36992;48.200;12.418;2022-10-13T06:57:48;7.38;;;4.63;;
50976;SDS011;36992;48.200;12.418;2022-10-13T07:00:14;6.85;;;4.45;;
50976;SDS011;36992;48.200;12.418;2022-10-13T07:02:41;8.82;;;5.60;;
50976;SDS011;36992;48.200;12.418;2022-10-13T07:05:08;5.90;;;3.75;;
50976;SDS011;36992;48.200;12.418;2022-10-13T07:07:34;8.43;;;4.68;;
50976;SDS011;36992;48.200;12.418;2022-10-13T07:10:02;9.25;;;4.93;;
50976;SDS011;36992;48.200;12.418;2022-10-13T07:12:29;8.70;;;5.45;;
50976;SDS011;36992;48.200;12.418;2022-10-13T07:14:55;8.85;;;5.55;;
50976;SDS011;36992;48.200;12.418;2022-10-13T07:17:22;8.57;;;5.10;;
50976;SDS011;36992;48.200;12.418;2022-10-13T07:19:48;9.18;;;4.63;;
50976;SDS011;36992;48.200;12.418;2022-10-13T07:22:15;6.88;;;3.83;;
50976;SDS011;36992;48.200;12.418;2022-10-13T07:24:41;7.07;;;4.70;;
50976;SDS011;36992;48.200;12.418;2022-10-13T07:27:10;9.65;;;4.65;;
50976;SDS011;36992;48.200;12.418;2022-10-13T07:29:36;6.97;;;3.80;;
50976;SDS011;36992;48.200;12.418;2022-10-13T07:32:03;5.50;;;3.25;;
50976;SDS011;36992;48.200;12.418;2022-10-13T07:34:30;5.80;;;3.47;;
50976;SDS011;36992;48.200;12.418;2022-10-13T07:36:56;7.95;;;3.63;;
50976;SDS011;36992;48.200;12.418;2022-10-13T07:39:23;5.60;;;3.75;;
50976;SDS011;36992;48.200;12.418;2022-10-13T07:41:49;9.82;;;4.10;;
50976;SDS011;36992;48.200;12.418;2022-10-13T07:44:17;6.13;;;3.28;;
50976;SDS011;36992;48.200;12.418;2022-10-13T07:46:43;5.50;;;2.35;;
50976;SDS011;36992;48.200;12.418;2022-10-13T07:49:10;6.55;;;3.40;;
50976;SDS011;36992;48.200;12.418;2022-10-13T07:51:36;9.25;;;2.83;;
50976;SDS011;36992;48.200;12.418;2022-10-13T07:54:03;4.50;;;2.50;;
50976;SDS011;36992;48.200;12.418;2022-10-13T07:56:29;5.07;;;2.80;;
50976;SDS011;36992;48.200;12.418;2022-10-13T07:58:56;4.45;;;2.90;;
50976;SDS011;36992;48.200;12.418;2022-10-13T08:01:24;4.03;;;2.28;;
50976;SDS011;36992;48.200;12.418;2022-10-13T08:03:53;4.88;;;1.98;;
50976;SDS011;36992;48.200;12.418;2022-10-13T08:06:20;3.28;;;2.17;;
50976;SDS011;36992;48.200;12.418;2022-10-13T08:08:47;3.42;;;2.03;;
50976;SDS011;36992;48.200;12.418;2022-10-13T08:11:14;4.38;;;1.85;;
50976;SDS011;36992;48.200;12.418;2022-10-13T08:13:44;3.65;;;2.10;;
50976;SDS011;36992;48.200;12.418;2022-10-13T08:16:12;5.50;;;2.13;;
50976;SDS011;36992;48.200;12.418;2022-10-13T08:18:40;6.93;;;2.83;;
50976;SDS011;36992;48.200;12.418;2022-10-13T08:21:07;8.00;;;2.80;;
50976;SDS011;36992;48.200;12.418;2022-10-13T08:23:37;4.30;;;2.63;;
50976;SDS011;36992;48.200;12.418;2022-10-13T08:26:04;3.90;;;2.35;;
50976;SDS011;36992;48.200;12.418;2022-10-13T08:28:31;5.75;;;2.42;;
50976;SDS011;36992;48.200;12.418;2022-10-13T08:30:57;5.10;;;2.58;;
50976;SDS011;36992;48.200;12.418;2022-10-13T08:33:24;9.55;;;3.20;;
50976;SDS011;36992;48.200;12.418;2022-10-13T08:35:53;9.70;;;2.97;;
50976;SDS011;36992;48.200;12.418;2022-10-13T08:38:19;5.28;;;2.85;;
50976;SDS011;36992;48.200;12.418;2022-10-13T08:40:46;5.30;;;2.60;;
50976;SDS011;36992;48.200;12.418;2022-10-13T08:43:13;9.07;;;3.10;;
50976;SDS011;36992;48.200;12.418;2022-10-13T08:45:42;3.88;;;1.63;;
50976;SDS011;36992;48.200;12.418;2022-10-13T08:48:10;4.75;;;2.40;;
50976;SDS011;36992;48.200;12.418;2022-10-13T08:50:40;4.72;;;2.55;;
50976;SDS011;36992;48.200;12.418;2022-10-13T08:53:11;4.38;;;1.60;;
50976;SDS011;36992;48.200;12.418;2022-10-13T08:55:45;5.03;;;1.90;;
50976;SDS011;36992;48.200;12.418;2022-10-13T08:58:22;6.10;;;2.17;;
50976;SDS011;36992;48.200;12.418;2022-10-13T09:00:55;9.70;;;2.88;;
50976;SDS011;36992;48.200;12.418;2022-10-13T09:03:28;5.22;;;2.30;;
50976;SDS011;36992;48.200;12.418;2022-10-13T09:05:57;5.85;;;3.33;;
50976;SDS011;36992;48.200;12.418;2022-10-13T09:11:01;5.55;;;2.03;;
50976;SDS011;36992;48.200;12.418;2022-10-13T09:13:28;4.15;;;2.05;;
50976;SDS011;36992;48.200;12.418;2022-10-13T09:15:55;3.95;;;1.45;;
50976;SDS011;36992;48.200;12.418;2022-10-13T09:18:26;4.05;;;2.22;;
50976;SDS011;36992;48.200;12.418;2022-10-13T09:21:07;4.68;;;2.10;;
50976;SDS011;36992;48.200;12.418;2022-10-13T09:23:44;4.55;;;2.20;;
50976;SDS011;36992;48.200;12.418;2022-10-13T09:26:15;2.92;;;1.38;;
50976;SDS011;36992;48.200;12.418;2022-10-13T09:28:45;3.28;;;1.92;;
50976;SDS011;36992;48.200;12.418;2022-10-13T09:31:13;5.78;;;2.40;;
50976;SDS011;36992;48.200;12.418;2022-10-13T09:33:42;5.55;;;1.83;;
50976;SDS011;36992;48.200;12.418;2022-10-13T09:36:10;3.75;;;1.65;;
50976;SDS011;36992;48.200;12.418;2022-10-13T09:38:39;5.38;;;2.53;;
50976;SDS011;36992;48.200;12.418;2022-10-13T09:41:20;3.42;;;1.55;;
50976;SDS011;36992;48.200;12.418;2022-10-13T09:43:57;6.35;;;2.00;;
50976;SDS011;36992;48.200;12.418;2022-10-13T09:46:27;6.05;;;2.80;;
50976;SDS011;36992;48.200;12.418;2022-10-13T09:49:02;4.47;;;2.45;;
50976;SDS011;36992;48.200;12.418;2022-10-13T09:51:32;7.85;;;2.75;;
50976;SDS011;36992;48.200;12.418;2022-10-13T09:54:02;5.07;;;1.95;;
50976;SDS011;36992;48.200;12.418;2022-10-13T09:56:32;4.78;;;2.40;;
50976;SDS011;36992;48.200;12.418;2022-10-13T09:59:06;3.00;;;1.88;;
50976;SDS011;36992;48.200;12.418;2022-10-13T10:01:40;4.93;;;2.38;;
50976;SDS011;36992;48.200;12.418;2022-10-13T10:04:10;5.93;;;1.80;;
50976;SDS011;36992;48.200;12.418;2022-10-13T10:06:39;3.88;;;2.28;;
50976;SDS011;36992;48.200;12.418;2022-10-13T10:09:12;5.32;;;2.55;;
50976;SDS011;36992;48.200;12.418;2022-10-13T10:11:53;5.72;;;1.98;;
50976;SDS011;36992;48.200;12.418;2022-10-13T10:14:24;4.13;;;2.03;;
50976;SDS011;36992;48.200;12.418;2022-10-13T10:16:54;5.38;;;2.20;;
50976;SDS011;36992;48.200;12.418;2022-10-13T10:19:27;3.97;;;1.50;;
50976;SDS011;36992;48.200;12.418;2022-10-13T10:22:01;3.88;;;1.92;;
50976;SDS011;36992;48.200;12.418;2022-10-13T10:24:36;3.40;;;1.92;;
50976;SDS011;36992;48.200;12.418;2022-10-13T10:27:14;6.32;;;2.13;;
50976;SDS011;36992;48.200;12.418;2022-10-13T10:29:45;9.57;;;2.75;;
50976;SDS011;36992;48.200;12.418;2022-10-13T10:32:26;4.57;;;2.28;;
50976;SDS011;36992;48.200;12.418;2022-10-13T10:34:59;10.30;;;2.65;;
50976;SDS011;36992;48.200;12.418;2022-10-13T10:37:35;5.13;;;1.92;;
50976;SDS011;36992;48.200;12.418;2022-10-13T10:40:13;4.93;;;2.00;;
50976;SDS011;36992;48.200;12.418;2022-10-13T10:42:55;6.18;;;1.80;;
50976;SDS011;36992;48.200;12.418;2022-10-13T10:45:29;4.80;;;2.08;;
50976;SDS011;36992;48.200;12.418;2022-10-13T10:47:59;3.40;;;1.50;;
50976;SDS011;36992;48.200;12.418;2022-10-13T10:50:28;3.55;;;1.98;;
50976;SDS011;36992;48.200;12.418;2022-10-13T10:52:58;5.63;;;2.33;;
50976;SDS011;36992;48.200;12.418;2022-10-13T10:55:31;6.22;;;1.85;;
50976;SDS011;36992;48.200;12.418;2022-10-13T10:58:05;3.92;;;1.73;;
50976;SDS011;36992;48.200;12.418;2022-10-13T11:00:52;3.85;;;1.95;;
50976;SDS011;36992;48.200;12.418;2022-10-13T11:03:26;4.40;;;1.65;;
50976;SDS011;36992;48.200;12.418;2022-10-13T11:06:01;7.15;;;1.95;;
50976;SDS011;36992;48.200;12.418;2022-10-13T11:08:31;5.10;;;1.92;;
50976;SDS011;36992;48.200;12.418;2022-10-13T11:13:52;5.07;;;2.20;;
50976;SDS011;36992;48.200;12.418;2022-10-13T11:16:27;5.25;;;1.63;;
50976;SDS011;36992;48.200;12.418;2022-10-13T11:18:56;11.10;;;2.67;;
50976;SDS011;36992;48.200;12.418;2022-10-13T11:24:49;4.95;;;1.77;;
50976;SDS011;36992;48.200;12.418;2022-10-13T11:27:18;5.05;;;1.92;;
50976;SDS011;36992;48.200;12.418;2022-10-13T11:29:52;4.18;;;1.80;;
50976;SDS011;36992;48.200;12.418;2022-10-13T11:32:41;4.47;;;1.55;;
50976;SDS011;36992;48.200;12.418;2022-10-13T11:35:21;4.53;;;1.98;;
50976;SDS011;36992;48.200;12.418;2022-10-13T11:37:53;5.25;;;1.98;;
50976;SDS011;36992;48.200;12.418;2022-10-13T11:40:44;5.28;;;1.98;;
50976;SDS011;36992;48.200;12.418;2022-10-13T11:43:27;3.92;;;1.95;;
50976;SDS011;36992;48.200;12.418;2022-10-13T11:51:59;3.33;;;1.35;;
50976;SDS011;36992;48.200;12.418;2022-10-13T11:54:38;2.88;;;1.30;;
50976;SDS011;36992;48.200;12.418;2022-10-13T11:57:16;5.25;;;1.63;;
50976;SDS011;36992;48.200;12.418;2022-10-13T11:59:44;5.45;;;1.48;;
50976;SDS011;36992;48.200;12.418;2022-10-13T12:02:14;6.75;;;1.80;;
50976;SDS011;36992;48.200;12.418;2022-10-13T12:04:42;5.40;;;2.00;;
50976;SDS011;36992;48.200;12.418;2022-10-13T12:07:09;4.03;;;1.95;;
50976;SDS011;36992;48.200;12.418;2022-10-13T12:09:39;7.25;;;1.77;;
50976;SDS011;36992;48.200;12.418;2022-10-13T12:12:15;3.88;;;1.90;;
50976;SDS011;36992;48.200;12.418;2022-10-13T12:14:44;5.68;;;2.72;;
50976;SDS011;36992;48.200;12.418;2022-10-13T12:17:20;3.60;;;1.60;;
50976;SDS011;36992;48.200;12.418;2022-10-13T12:19:48;8.18;;;3.00;;
50976;SDS011;36992;48.200;12.418;2022-10-13T12:22:15;5.07;;;2.03;;
50976;SDS011;36992;48.200;12.418;2022-10-13T12:24:41;5.07;;;2.00;;
50976;SDS011;36992;48.200;12.418;2022-10-13T12:27:09;6.82;;;2.63;;
50976;SDS011;36992;48.200;12.418;2022-10-13T12:29:37;5.53;;;1.92;;
50976;SDS011;36992;48.200;12.418;2022-10-13T12:32:16;5.65;;;2.03;;
50976;SDS011;36992;48.200;12.418;2022-10-13T12:34:45;8.48;;;1.83;;
50976;SDS011;36992;48.200;12.418;2022-10-13T12:37:13;3.75;;;1.90;;
50976;SDS011;36992;48.200;12.418;2022-10-13T12:39:50;6.00;;;2.08;;
50976;SDS011;36992;48.200;12.418;2022-10-13T12:42:17;4.43;;;1.67;;
50976;SDS011;36992;48.200;12.418;2022-10-13T12:44:44;6.55;;;2.22;;
50976;SDS011;36992;48.200;12.418;2022-10-13T12:50:20;4.75;;;1.85;;
50976;SDS011;36992;48.200;12.418;2022-10-13T12:53:04;4.60;;;1.80;;
50976;SDS011;36992;48.200;12.418;2022-10-13T12:55:44;3.60;;;1.45;;
50976;SDS011;36992;48.200;12.418;2022-10-13T12:58:15;3.30;;;1.42;;
50976;SDS011;36992;48.200;12.418;2022-10-13T13:00:53;6.57;;;2.22;;
50976;SDS011;36992;48.200;12.418;2022-10-13T13:03:26;8.10;;;3.53;;
50976;SDS011;36992;48.200;12.418;2022-10-13T13:06:10;8.65;;;2.35;;
50976;SDS011;36992;48.200;12.418;2022-10-13T13:11:48;7.63;;;2.28;;
50976;SDS011;36992;48.200;12.418;2022-10-13T13:14:35;5.25;;;2.13;;
50976;SDS011;36992;48.200;12.418;2022-10-13T13:17:04;4.00;;;1.70;;
50976;SDS011;36992;48.200;12.418;2022-10-13T13:19:32;4.88;;;1.73;;
50976;SDS011;36992;48.200;12.418;2022-10-13T13:22:01;5.30;;;2.10;;
50976;SDS011;36992;48.200;12.418;2022-10-13T13:24:29;6.45;;;1.92;;
50976;SDS011;36992;48.200;12.418;2022-10-13T13:26:55;5.93;;;2.20;;
50976;SDS011;36992;48.200;12.418;2022-10-13T13:29:22;7.82;;;1.85;;
50976;SDS011;36992;48.200;12.418;2022-10-13T13:31:49;3.28;;;1.48;;
50976;SDS011;36992;48.200;12.418;2022-10-13T13:34:15;5.55;;;2.28;;
50976;SDS011;36992;48.200;12.418;2022-10-13T13:36:42;7.88;;;3.20;;
50976;SDS011;36992;48.200;12.418;2022-10-13T13:39:13;5.88;;;2.15;;
50976;SDS011;36992;48.200;12.418;2022-10-13T13:41:42;7.00;;;2.10;;
50976;SDS011;36992;48.200;12.418;2022-10-13T13:44:09;3.60;;;1.45;;
50976;SDS011;36992;48.200;12.418;2022-10-13T13:46:36;8.68;;;2.38;;
50976;SDS011;36992;48.200;12.418;2022-10-13T13:49:02;3.92;;;1.88;;
50976;SDS011;36992;48.200;12.418;2022-10-13T13:51:30;4.47;;;1.92;;
50976;SDS011;36992;48.200;12.418;2022-10-13T13:53:57;4.85;;;1.75;;
50976;SDS011;36992;48.200;12.418;2022-10-13T13:56:25;7.35;;;1.80;;
50976;SDS011;36992;48.200;12.418;2022-10-13T13:58:52;6.88;;;2.17;;
50976;SDS011;36992;48.200;12.418;2022-10-13T14:01:18;5.38;;;1.83;;
50976;SDS011;36992;48.200;12.418;2022-10-13T14:03:45;5.40;;;1.65;;
50976;SDS011;36992;48.200;12.418;2022-10-13T14:06:15;6.20;;;1.90;;
50976;SDS011;36992;48.200;12.418;2022-10-13T14:08:43;5.43;;;2.38;;
50976;SDS011;36992;48.200;12.418;2022-10-13T14:11:09;3.60;;;1.58;;
50976;SDS011;36992;48.200;12.418;2022-10-13T14:13:37;5.60;;;1.80;;
50976;SDS011;36992;48.200;12.418;2022-10-13T14:16:04;3.60;;;1.65;;
50976;SDS011;36992;48.200;12.418;2022-10-13T14:18:31;4.40;;;1.80;;
50976;SDS011;36992;48.200;12.418;2022-10-13T14:20:57;8.60;;;2.78;;
50976;SDS011;36992;48.200;12.418;2022-10-13T14:23:24;4.97;;;1.77;;
50976;SDS011;36992;48.200;12.418;2022-10-13T14:25:50;3.88;;;1.50;;
50976;SDS011;36992;48.200;12.418;2022-10-13T14:28:17;6.47;;;1.85;;
50976;SDS011;36992;48.200;12.418;2022-10-13T14:30:45;4.10;;;1.60;;
50976;SDS011;36992;48.200;12.418;2022-10-13T14:33:11;5.28;;;1.77;;
50976;SDS011;36992;48.200;12.418;2022-10-13T14:35:38;4.47;;;1.67;;
50976;SDS011;36992;48.200;12.418;2022-10-13T14:38:04;4.28;;;1.73;;
50976;SDS011;36992;48.200;12.418;2022-10-13T14:40:30;4.40;;;1.50;;
50976;SDS011;36992;48.200;12.418;2022-10-13T14:42:57;5.05;;;1.48;;
50976;SDS011;36992;48.200;12.418;2022-10-13T14:45:23;4.97;;;1.42;;
50976;SDS011;36992;48.200;12.418;2022-10-13T14:47:52;4.88;;;1.60;;
50976;SDS011;36992;48.200;12.418;2022-10-13T14:50:18;3.15;;;1.77;;
50976;SDS011;36992;48.200;12.418;2022-10-13T14:52:45;3.05;;;1.20;;
50976;SDS011;36992;48.200;12.418;2022-10-13T14:55:11;3.25;;;1.70;;
50976;SDS011;36992;48.200;12.418;2022-10-13T14:57:38;4.90;;;2.58;;
50976;SDS011;36992;48.200;12.418;2022-10-13T15:00:05;2.95;;;1.55;;
50976;SDS011;36992;48.200;12.418;2022-10-13T15:02:32;4.25;;;1.80;;
50976;SDS011;36992;48.200;12.418;2022-10-13T15:05:00;5.60;;;1.58;;
50976;SDS011;36992;48.200;12.418;2022-10-13T15:07:26;5.07;;;1.42;;
50976;SDS011;36992;48.200;12.418;2022-10-13T15:09:53;4.57;;;2.42;;
50976;SDS011;36992;48.200;12.418;2022-10-13T15:12:19;3.35;;;1.27;;